createdAt,value
2022-12-05T06:02:50.891Z,95.20
2022-12-05T06:07:53.662Z,95.10
2022-12-05T06:12:57.387Z,94.89
2022-12-05T06:17:59.631Z,94.93
2022-12-05T06:23:01.855Z,94.99
2022-12-05T06:28:04.118Z,94.98
2022-12-05T06:33:06.535Z,94.85
2022-12-05T06:38:09.556Z,94.91
2022-12-05T06:43:12.072Z,94.52
2022-12-05T06:48:14.544Z,94.77
2022-12-05T06:53:17.136Z,94.80
2022-12-05T06:58:19.350Z,94.67
2022-12-05T07:03:21.670Z,94.58
2022-12-05T07:08:23.895Z,94.72
2022-12-05T07:13:26.352Z,94.64
2022-12-05T07:18:29.048Z,94.81
2022-12-05T07:23:31.363Z,94.28
2022-12-05T07:28:34.501Z,94.60
2022-12-05T07:33:37.281Z,94.64
2022-12-05T07:38:40.840Z,94.28
2022-12-05T07:43:43.117Z,94.46
2022-12-05T07:48:45.789Z,94.40
2022-12-05T07:53:48.926Z,94.49
2022-12-05T07:58:51.212Z,94.62
2022-12-05T08:03:55.445Z,94.40
2022-12-05T08:08:58.066Z,94.52
2022-12-05T08:14:00.303Z,94.37
2022-12-05T08:19:05.763Z,94.22
2022-12-05T08:24:08.436Z,94.30
2022-12-05T08:29:13.681Z,94.61
2022-12-05T08:34:20.083Z,94.60
2022-12-05T08:39:22.467Z,94.39
2022-12-05T08:44:25.161Z,94.51
2022-12-05T08:49:28.202Z,94.59
2022-12-05T08:54:30.395Z,94.57
2022-12-05T08:59:32.684Z,94.32
2022-12-05T09:04:34.950Z,94.48
2022-12-05T09:09:37.401Z,93.98
2022-12-05T09:14:39.610Z,94.02
2022-12-05T09:19:41.812Z,94.33
2022-12-05T09:24:44.326Z,94.48
2022-12-05T09:29:46.623Z,94.17
2022-12-05T09:34:48.906Z,94.03
2022-12-05T09:39:51.131Z,94.19
2022-12-05T09:45:05.925Z,93.99
2022-12-05T09:50:28.525Z,94.14
2022-12-05T09:55:48.339Z,93.92
2022-12-05T10:00:54.947Z,94.17
2022-12-05T10:06:12.763Z,94.16
2022-12-05T10:11:26.641Z,94.26
2022-12-05T10:16:37.615Z,93.88
2022-12-05T10:21:56.764Z,93.82
2022-12-05T10:27:08.633Z,94.23
2022-12-05T10:32:17.029Z,93.96
2022-12-05T10:37:23.411Z,94.53
2022-12-05T10:42:30.163Z,94.27
2022-12-05T10:47:33.304Z,93.81
2022-12-05T10:52:35.658Z,94.04
2022-12-05T10:57:37.913Z,94.22
2022-12-05T11:02:41.518Z,94.05
2022-12-05T11:07:43.832Z,93.52
2022-12-05T11:12:46.243Z,93.56
2022-12-05T11:17:49.715Z,93.47
2022-12-05T11:22:55.070Z,93.43
2022-12-05T11:28:01.424Z,94.26
2022-12-05T11:33:22.024Z,93.68
2022-12-05T11:38:29.330Z,93.48
2022-12-05T11:43:46.742Z,93.71
2022-12-05T11:48:57.795Z,94.11
2022-12-05T11:54:30.602Z,94.43
2022-12-05T12:00:02.407Z,93.72
2022-12-05T12:05:30.385Z,93.94
2022-12-05T12:10:54.237Z,94.33
2022-12-05T12:16:20.820Z,93.68
2022-12-05T12:21:23.159Z,94.23
2022-12-05T12:26:30.189Z,93.73
2022-12-05T12:31:50.842Z,94.13
2022-12-05T12:37:03.480Z,94.02
2022-12-05T12:42:08.687Z,93.78
2022-12-05T12:47:29.083Z,94.12
2022-12-05T12:53:00.796Z,93.62
2022-12-05T12:58:18.249Z,93.49
2022-12-05T13:03:25.691Z,93.55
2022-12-05T13:09:13.013Z,94.17
2022-12-05T13:14:20.881Z,93.87
2022-12-05T13:19:29.142Z,93.92
2022-12-05T13:24:31.854Z,93.43
2022-12-05T13:29:39.989Z,93.77
2022-12-05T13:34:49.096Z,93.06
2022-12-05T13:40:12.200Z,93.16
2022-12-05T13:45:20.374Z,93.69
2022-12-05T13:50:31.604Z,93.64
2022-12-05T13:55:37.801Z,93.24
2022-12-05T14:00:40.573Z,93.20
2022-12-05T14:05:51.559Z,93.00
2022-12-05T14:10:53.741Z,93.56
2022-12-05T14:16:24.856Z,93.77
2022-12-05T14:21:51.155Z,93.74
2022-12-05T14:27:22.624Z,93.25
2022-12-05T14:32:32.699Z,94.02
2022-12-05T14:37:38.492Z,94.10
2022-12-05T14:43:03.347Z,93.95
2022-12-05T14:48:14.620Z,93.56
2022-12-05T14:53:26.086Z,93.92
2022-12-05T14:58:41.831Z,93.88
2022-12-05T15:04:07.787Z,94.01
2022-12-05T15:09:36.902Z,94.15
2022-12-05T15:15:23.385Z,93.97
2022-12-05T15:20:25.702Z,93.62
2022-12-05T15:25:32.854Z,93.68
2022-12-05T15:30:39.716Z,93.79
2022-12-05T15:35:48.362Z,93.81
2022-12-05T15:40:50.686Z,93.87
2022-12-05T15:46:08.181Z,94.03
2022-12-05T15:51:10.621Z,94.13
2022-12-05T15:56:18.113Z,94.42
2022-12-05T16:01:25.242Z,94.33
2022-12-05T16:06:43.427Z,94.83
2022-12-05T16:12:00.263Z,94.07
2022-12-05T16:17:04.601Z,94.29
2022-12-05T16:22:12.663Z,94.77
2022-12-05T16:27:25.293Z,94.66
2022-12-05T16:32:27.563Z,94.27
2022-12-05T16:37:30.378Z,94.14
2022-12-05T16:42:32.695Z,94.33
2022-12-05T16:47:40.816Z,94.37
2022-12-05T16:52:43.128Z,93.96
2022-12-05T16:57:45.317Z,94.07
2022-12-05T17:02:47.525Z,94.24
2022-12-05T17:07:49.851Z,94.39
2022-12-05T17:12:52.103Z,94.27
2022-12-05T17:17:54.784Z,94.61
2022-12-05T17:22:57.028Z,94.84
2022-12-05T17:27:59.269Z,94.74
2022-12-05T17:33:01.634Z,94.22
2022-12-05T17:38:04.579Z,94.91
2022-12-05T17:43:07.105Z,94.92
2022-12-05T17:48:13.474Z,94.99
2022-12-05T17:53:18.712Z,94.60
2022-12-05T17:58:21.069Z,95.39
2022-12-05T18:03:23.451Z,94.49
2022-12-05T18:08:25.734Z,95.20
2022-12-05T18:13:37.400Z,94.85
2022-12-05T18:18:39.806Z,95.06
2022-12-05T18:23:42.163Z,94.98
2022-12-05T18:28:46.888Z,95.13
2022-12-05T18:33:49.103Z,95.10
2022-12-05T18:38:54.491Z,95.12
2022-12-05T18:43:56.800Z,95.37
2022-12-05T18:49:03.356Z,95.08
2022-12-05T18:54:06.209Z,95.21
2022-12-05T18:59:19.550Z,95.06
2022-12-05T19:04:21.932Z,95.46
2022-12-05T19:09:29.952Z,94.76
2022-12-05T19:14:33.220Z,95.62
2022-12-05T19:19:37.297Z,95.63
2022-12-05T19:24:39.573Z,95.23
2022-12-05T19:29:41.850Z,95.18
2022-12-05T19:34:46.532Z,95.68
2022-12-05T19:39:50.130Z,95.61
2022-12-05T19:44:52.417Z,95.85
2022-12-05T19:49:54.692Z,95.53
2022-12-05T19:54:57.105Z,96.48
2022-12-05T20:00:00.192Z,95.98
2022-12-05T20:05:04.060Z,96.34
2022-12-05T20:10:06.690Z,96.45
2022-12-05T20:15:15.750Z,95.98
2022-12-05T20:20:19.009Z,96.38
2022-12-05T20:25:21.191Z,96.19
2022-12-05T20:30:28.244Z,96.29
2022-12-05T20:35:38.133Z,95.88
2022-12-05T20:40:40.389Z,96.27
2022-12-05T20:45:42.651Z,96.09
2022-12-05T20:50:44.904Z,96.12
2022-12-05T20:55:47.298Z,95.66
2022-12-05T21:00:49.503Z,96.54
2022-12-05T21:05:52.088Z,96.33
2022-12-05T21:10:54.503Z,96.31
2022-12-05T21:15:57.503Z,96.35
2022-12-05T21:21:06.696Z,96.34
2022-12-05T21:26:14.076Z,96.74
2022-12-05T21:31:26.876Z,96.69
2022-12-05T21:36:31.694Z,97.12
2022-12-05T21:41:34.702Z,96.33
2022-12-05T21:46:37.290Z,96.46
2022-12-05T21:51:39.955Z,96.61
2022-12-05T21:56:43.590Z,96.88
2022-12-05T22:01:46.645Z,96.79
2022-12-05T22:06:48.915Z,97.06
2022-12-05T22:11:51.175Z,97.26
2022-12-05T22:16:53.470Z,96.89
2022-12-05T22:21:55.663Z,96.99
2022-12-05T22:26:57.949Z,97.18
2022-12-05T22:32:00.277Z,96.76
2022-12-05T22:37:02.509Z,97.18
2022-12-05T22:42:04.805Z,96.41
